LKG weather

Lokichoggio Airport
Lokichoggio, Rift Valley Province, Kenya

Public forecast

Using degrees Celsius for public forecast. Weather courtesy of forecast.io.

Closest aviation weather report (METAR) to Lokichoggio Airport

Report is more than 6 hours old.

Closest report is Lodwar Airport, 99.6 nm (184.5 km) SE. Retrieved 2015/06/14 14:00 UTC (4 years ago):

HKLO 141400Z 10010KT 9999 FEW034 34/17

Closest aviation forecast (TAF) to Lokichoggio Airport

Forecast is more than 12 hours old.

Closest forecast is Kapoeta Airport, 57.5 nm (106.5 km) NW. Retrieved 2015/03/08 06:00 UTC (5 years ago):

TAF HSKP 080400Z 0806/0912 18005G15KT 9999 SCT040 BKN140 TEMPO 0815/0821 18008G18KT 6000 TSRA FEW045CB TEMPO 0821/0824 VRB03KT 9999 SCT040 BKN140